createdAt,value
2023-02-01T00:00:30.960Z,76.75
2023-02-01T00:02:57.578Z,77.93
2023-02-01T00:05:24.307Z,77.61
2023-02-01T00:07:51.138Z,76.99
2023-02-01T00:10:18.475Z,76.98
2023-02-01T00:12:45.483Z,78.14
2023-02-01T00:15:12.491Z,78.60
2023-02-01T00:17:39.231Z,77.03
2023-02-01T00:20:06.541Z,77.24
2023-02-01T00:22:33.195Z,77.52
2023-02-01T00:24:59.814Z,77.55
2023-02-01T00:27:26.435Z,77.94
2023-02-01T00:29:56.055Z,78.24
2023-02-01T00:32:22.730Z,78.03
2023-02-01T00:34:49.449Z,78.60
2023-02-01T00:37:16.075Z,78.26
2023-02-01T00:39:42.694Z,78.15
2023-02-01T00:42:09.500Z,77.91
2023-02-01T00:44:36.732Z,77.86
2023-02-01T00:47:03.376Z,77.52
2023-02-01T00:49:30.193Z,76.82
2023-02-01T00:51:57.061Z,78.34
2023-02-01T00:54:23.959Z,78.36
2023-02-01T00:56:50.731Z,77.22
2023-02-01T00:59:18.861Z,77.27
2023-02-01T01:01:46.000Z,77.36
2023-02-01T01:04:12.785Z,77.63
2023-02-01T01:06:39.536Z,77.95
2023-02-01T01:09:08.460Z,78.27
2023-02-01T01:11:37.654Z,77.71
2023-02-01T01:14:07.696Z,77.15
2023-02-01T01:16:38.818Z,77.33
2023-02-01T01:19:07.857Z,77.34
2023-02-01T01:21:34.662Z,77.44
2023-02-01T01:24:01.467Z,77.09
2023-02-01T01:26:30.428Z,76.73
2023-02-01T01:29:01.071Z,78.25
2023-02-01T01:31:29.330Z,76.79
2023-02-01T01:33:58.164Z,76.83
2023-02-01T01:36:27.083Z,76.87
2023-02-01T01:38:53.922Z,78.04
2023-02-01T01:41:24.097Z,76.79
2023-02-01T01:44:03.956Z,76.32
2023-02-01T01:46:33.645Z,76.44
2023-02-01T01:49:15.118Z,76.62
2023-02-01T01:51:48.888Z,76.79
2023-02-01T01:54:21.477Z,76.15
2023-02-01T01:56:53.540Z,77.04
2023-02-01T01:59:22.944Z,76.72
2023-02-01T02:01:49.802Z,77.61
2023-02-01T02:04:16.842Z,76.93
2023-02-01T02:06:49.451Z,76.66
2023-02-01T02:09:16.575Z,75.30
2023-02-01T02:11:43.205Z,75.79
2023-02-01T02:14:15.135Z,76.48
2023-02-01T02:16:54.331Z,76.12
2023-02-01T02:19:26.690Z,75.49
2023-02-01T02:22:11.973Z,76.87
2023-02-01T02:24:55.911Z,77.42
2023-02-01T02:27:38.918Z,77.23
2023-02-01T02:30:17.817Z,76.51
2023-02-01T02:33:25.830Z,77.03
2023-02-01T02:36:09.312Z,76.22
2023-02-01T02:38:56.936Z,76.83
2023-02-01T02:42:01.583Z,75.64
2023-02-01T02:45:34.790Z,76.57
2023-02-01T02:48:12.966Z,76.21
2023-02-01T02:51:11.516Z,75.65
2023-02-01T02:54:16.661Z,76.66
2023-02-01T02:57:03.345Z,76.17
2023-02-01T02:59:50.138Z,75.90
2023-02-01T03:02:36.497Z,75.59
2023-02-01T03:05:03.197Z,76.46
2023-02-01T03:08:08.523Z,76.33
2023-02-01T03:10:56.531Z,77.16
2023-02-01T03:13:49.620Z,77.17
2023-02-01T03:16:37.724Z,76.98
2023-02-01T03:19:07.395Z,77.36
2023-02-01T03:21:57.670Z,76.34
2023-02-01T03:24:36.213Z,75.64
2023-02-01T03:27:10.008Z,76.38
2023-02-01T03:29:51.291Z,76.50
2023-02-01T03:32:18.474Z,76.31
2023-02-01T03:34:46.982Z,77.01
2023-02-01T03:37:22.262Z,76.17
2023-02-01T03:40:01.810Z,76.95
2023-02-01T03:42:37.903Z,75.96
2023-02-01T03:45:14.362Z,77.83
2023-02-01T03:47:45.946Z,77.51
2023-02-01T03:50:19.311Z,77.34
2023-02-01T03:52:52.190Z,78.48
2023-02-01T03:55:21.985Z,78.50
2023-02-01T03:58:10.525Z,76.99
2023-02-01T04:00:37.382Z,77.73
2023-02-01T04:03:05.975Z,77.14
2023-02-01T04:05:32.973Z,77.04
2023-02-01T04:08:03.393Z,76.91
2023-02-01T04:10:30.108Z,75.99
2023-02-01T04:12:56.734Z,75.46
2023-02-01T04:15:23.352Z,75.23
2023-02-01T04:17:49.935Z,75.31
2023-02-01T04:20:16.861Z,75.51
2023-02-01T04:22:44.485Z,74.48
2023-02-01T04:25:11.544Z,74.51
2023-02-01T04:30:05.905Z,73.85
2023-02-01T04:32:32.549Z,74.35
2023-02-01T04:34:59.287Z,74.63
2023-02-01T04:37:25.919Z,74.31
2023-02-01T04:39:52.633Z,74.45
2023-02-01T04:42:19.235Z,73.67
2023-02-01T04:44:45.925Z,74.51
2023-02-01T04:47:12.564Z,73.98
2023-02-01T04:49:39.231Z,74.90
2023-02-01T04:52:05.899Z,74.22
2023-02-01T04:54:32.528Z,74.46
2023-02-01T04:56:59.117Z,74.46
2023-02-01T04:59:26.171Z,74.04
2023-02-01T05:01:52.865Z,73.45
2023-02-01T05:04:19.652Z,74.30
2023-02-01T05:06:46.688Z,73.29
2023-02-01T05:09:13.410Z,73.83
2023-02-01T05:11:58.611Z,72.91
2023-02-01T05:14:25.259Z,73.88
2023-02-01T05:16:51.895Z,73.17
2023-02-01T05:19:18.592Z,72.80
2023-02-01T05:21:45.295Z,72.86
2023-02-01T05:24:14.547Z,72.82
2023-02-01T05:26:41.946Z,73.42
2023-02-01T05:29:09.857Z,73.49
2023-02-01T05:31:37.077Z,72.27
2023-02-01T05:34:04.870Z,72.02
2023-02-01T05:36:32.300Z,71.41
2023-02-01T05:38:59.141Z,71.66
2023-02-01T05:41:26.082Z,70.70
2023-02-01T05:43:52.796Z,70.99
2023-02-01T05:46:19.558Z,71.18
2023-02-01T05:48:46.310Z,71.35
2023-02-01T05:51:13.794Z,71.10
2023-02-01T05:53:40.459Z,71.28
2023-02-01T05:56:07.557Z,71.07
2023-02-01T05:58:34.273Z,71.65
2023-02-01T06:01:01.861Z,71.21
2023-02-01T06:03:28.869Z,71.62
2023-02-01T06:05:55.880Z,71.89
2023-02-01T06:08:22.631Z,71.61
2023-02-01T06:10:49.256Z,72.15
2023-02-01T06:13:15.877Z,71.94
2023-02-01T06:15:44.894Z,72.35
2023-02-01T06:18:11.658Z,72.91
2023-02-01T06:20:39.218Z,72.46
2023-02-01T06:23:05.939Z,71.76
2023-02-01T06:25:32.609Z,72.23
2023-02-01T06:28:01.943Z,71.76
2023-02-01T06:30:28.727Z,72.19
2023-02-01T06:32:56.518Z,71.58
2023-02-01T06:35:24.207Z,72.13
2023-02-01T06:37:51.863Z,71.24
2023-02-01T06:40:18.683Z,71.13
2023-02-01T06:42:45.297Z,71.36
2023-02-01T06:45:12.021Z,71.69
2023-02-01T06:47:38.684Z,71.04
2023-02-01T06:50:06.142Z,71.90
2023-02-01T06:52:32.789Z,71.40
2023-02-01T06:54:59.420Z,72.20
2023-02-01T06:57:26.331Z,71.92
2023-02-01T06:59:52.978Z,71.87
2023-02-01T07:02:19.674Z,72.66
2023-02-01T07:04:46.361Z,71.68
2023-02-01T07:07:13.146Z,71.94
2023-02-01T07:09:39.838Z,71.73
2023-02-01T07:12:06.870Z,71.72
2023-02-01T07:14:33.510Z,71.23
2023-02-01T07:17:00.099Z,71.08
2023-02-01T07:19:26.744Z,70.79
2023-02-01T07:21:53.341Z,71.80
2023-02-01T07:24:19.982Z,71.60
2023-02-01T07:26:48.735Z,70.70
2023-02-01T07:29:15.438Z,71.25
2023-02-01T07:31:42.067Z,71.07
2023-02-01T07:34:08.724Z,70.35
2023-02-01T07:36:37.157Z,70.37
2023-02-01T07:39:06.570Z,70.37
2023-02-01T07:41:33.217Z,69.90
2023-02-01T07:43:59.951Z,70.14
2023-02-01T07:46:26.599Z,70.13
2023-02-01T07:48:53.281Z,70.37
2023-02-01T07:51:19.850Z,69.68
2023-02-01T07:53:46.802Z,69.56
2023-02-01T07:56:18.624Z,68.78
2023-02-01T07:58:53.292Z,69.05
2023-02-01T08:01:25.117Z,67.79
2023-02-01T08:03:57.686Z,67.97
2023-02-01T08:06:25.793Z,67.00
2023-02-01T08:08:53.447Z,66.31
2023-02-01T08:11:22.051Z,66.36
2023-02-01T08:13:48.818Z,66.79
2023-02-01T08:16:17.690Z,66.45
2023-02-01T08:18:44.380Z,67.03
2023-02-01T08:21:21.131Z,66.70
2023-02-01T08:23:47.827Z,66.53
2023-02-01T08:26:21.458Z,66.89
2023-02-01T08:28:51.367Z,66.78
2023-02-01T08:31:21.076Z,65.92
2023-02-01T08:33:57.138Z,65.21
2023-02-01T08:36:25.235Z,64.87
2023-02-01T08:38:52.151Z,64.27
2023-02-01T08:41:21.637Z,64.30
2023-02-01T08:43:48.926Z,64.83
2023-02-01T08:46:16.088Z,64.62
2023-02-01T08:48:43.080Z,64.97
2023-02-01T08:51:13.706Z,64.39
2023-02-01T08:53:42.260Z,63.04
2023-02-01T08:56:11.517Z,61.87
2023-02-01T08:58:38.329Z,60.84
2023-02-01T09:01:06.758Z,60.66
2023-02-01T09:03:33.640Z,60.41
2023-02-01T09:06:02.126Z,60.80
2023-02-01T09:08:29.111Z,60.24
2023-02-01T09:11:06.331Z,59.17
2023-02-01T09:13:34.571Z,59.18
2023-02-01T09:16:01.314Z,58.11
2023-02-01T09:18:28.092Z,58.43
2023-02-01T09:20:54.817Z,59.21
2023-02-01T09:23:21.510Z,59.59
2023-02-01T09:25:51.145Z,60.19
2023-02-01T09:28:18.888Z,60.51
2023-02-01T09:30:46.131Z,60.05
2023-02-01T09:33:13.063Z,60.31
2023-02-01T09:35:39.834Z,59.87
2023-02-01T09:38:06.493Z,59.97
2023-02-01T09:40:35.563Z,60.61
2023-02-01T09:43:17.654Z,60.54
2023-02-01T09:45:51.621Z,60.39
2023-02-01T09:48:31.830Z,61.03
2023-02-01T09:51:00.528Z,60.49
2023-02-01T09:53:43.883Z,60.08
2023-02-01T09:56:18.879Z,61.23
2023-02-01T09:58:52.981Z,60.29
2023-02-01T10:01:23.345Z,60.12
2023-02-01T10:03:52.708Z,59.55
2023-02-01T10:06:45.615Z,58.90
2023-02-01T10:09:18.078Z,58.86
2023-02-01T10:12:03.613Z,59.25
2023-02-01T10:14:56.587Z,59.55
2023-02-01T10:17:45.493Z,59.60
2023-02-01T10:20:47.683Z,60.29
2023-02-01T10:23:35.355Z,60.32
2023-02-01T10:26:09.126Z,60.59
2023-02-01T10:28:38.928Z,60.97
2023-02-01T10:31:09.203Z,60.61
2023-02-01T10:33:45.482Z,60.34
2023-02-01T10:36:31.140Z,59.44
2023-02-01T10:39:00.569Z,60.03
2023-02-01T10:41:38.481Z,60.53
2023-02-01T10:44:11.327Z,60.39
2023-02-01T10:46:38.343Z,60.12
2023-02-01T10:49:07.554Z,60.05
2023-02-01T10:51:47.749Z,60.57
2023-02-01T10:54:22.484Z,60.22
2023-02-01T10:56:50.798Z,59.86
2023-02-01T10:59:25.777Z,59.52
2023-02-01T11:02:01.116Z,59.85
2023-02-01T11:04:33.128Z,59.26
2023-02-01T11:07:14.926Z,58.88
2023-02-01T11:09:42.530Z,58.10
2023-02-01T11:12:35.988Z,58.60
2023-02-01T11:15:23.084Z,59.12
2023-02-01T11:17:57.205Z,58.80
2023-02-01T11:20:32.941Z,58.58
2023-02-01T11:23:00.539Z,58.64
2023-02-01T11:25:27.509Z,58.54
2023-02-01T11:27:56.713Z,58.73
2023-02-01T11:30:37.822Z,59.03
2023-02-01T11:33:06.983Z,58.80
2023-02-01T11:35:39.563Z,58.47
2023-02-01T11:38:32.112Z,57.46
2023-02-01T11:41:14.167Z,55.19
2023-02-01T11:44:00.612Z,53.57
2023-02-01T11:46:35.491Z,55.14
2023-02-01T11:49:22.279Z,56.31
2023-02-01T11:52:09.600Z,56.67
2023-02-01T11:55:02.493Z,56.34
2023-02-01T11:57:50.045Z,57.16
2023-02-01T12:00:41.607Z,57.00
2023-02-01T12:03:27.149Z,57.31
2023-02-01T12:06:09.456Z,57.37
2023-02-01T12:08:46.004Z,57.78
2023-02-01T12:11:13.230Z,57.63
2023-02-01T12:14:05.998Z,57.23
2023-02-01T12:16:59.650Z,57.04
2023-02-01T12:19:59.697Z,57.23
2023-02-01T12:23:03.677Z,57.03
2023-02-01T12:25:55.994Z,57.32
2023-02-01T12:28:39.691Z,56.92
2023-02-01T12:31:15.828Z,55.95
2023-02-01T12:34:13.582Z,55.73
2023-02-01T12:36:54.888Z,55.82
2023-02-01T12:39:24.161Z,55.82
2023-02-01T12:42:04.120Z,56.23
2023-02-01T12:45:01.110Z,56.35
2023-02-01T12:47:36.326Z,55.67
2023-02-01T12:50:19.898Z,55.47
2023-02-01T12:52:55.415Z,55.04
2023-02-01T12:55:25.185Z,55.53
2023-02-01T12:58:17.655Z,55.42
2023-02-01T13:00:48.311Z,55.72
2023-02-01T13:03:42.569Z,56.86
2023-02-01T13:06:09.354Z,56.30
2023-02-01T13:08:53.600Z,56.77
2023-02-01T13:11:30.924Z,57.02
2023-02-01T13:14:13.205Z,56.72
2023-02-01T13:16:48.482Z,57.33
2023-02-01T13:19:21.270Z,56.65
2023-02-01T13:21:51.939Z,57.11
2023-02-01T13:24:32.579Z,56.73
2023-02-01T13:26:59.408Z,57.21
2023-02-01T13:29:29.299Z,57.01
2023-02-01T13:32:19.572Z,57.26
2023-02-01T13:35:04.577Z,58.08
2023-02-01T13:37:37.180Z,57.65
2023-02-01T13:40:32.503Z,57.62
2023-02-01T13:43:09.183Z,57.98
2023-02-01T13:45:43.399Z,57.70
2023-02-01T13:48:23.964Z,58.31
2023-02-01T13:50:57.423Z,58.08
2023-02-01T13:53:40.493Z,58.02
2023-02-01T13:56:16.082Z,57.48
2023-02-01T13:58:44.937Z,57.60
2023-02-01T14:01:24.037Z,57.72
2023-02-01T14:03:53.315Z,58.13
2023-02-01T14:06:29.161Z,58.77
2023-02-01T14:09:13.374Z,58.38
2023-02-01T14:11:51.506Z,58.53
2023-02-01T14:14:18.125Z,58.20
2023-02-01T14:17:10.308Z,58.05
2023-02-01T14:19:37.971Z,57.21
2023-02-01T14:22:34.913Z,56.90
2023-02-01T14:25:01.635Z,56.21
2023-02-01T14:27:35.979Z,56.13
2023-02-01T14:30:08.096Z,56.46
2023-02-01T14:32:39.332Z,56.39
2023-02-01T14:35:29.533Z,56.78
2023-02-01T14:38:03.556Z,56.64
2023-02-01T14:40:31.853Z,57.13
2023-02-01T14:42:58.492Z,57.28
2023-02-01T14:45:45.990Z,57.38
2023-02-01T14:48:12.747Z,57.50
2023-02-01T14:50:41.888Z,57.79
2023-02-01T14:53:11.728Z,57.46
2023-02-01T14:56:05.182Z,57.62
2023-02-01T14:58:53.399Z,58.15
2023-02-01T15:01:29.818Z,57.46
2023-02-01T15:03:59.872Z,57.52
2023-02-01T15:06:34.666Z,57.71
2023-02-01T15:09:10.957Z,57.54
2023-02-01T15:11:58.481Z,56.92
2023-02-01T15:14:26.664Z,57.03
2023-02-01T15:16:56.204Z,57.88
2023-02-01T15:19:25.169Z,56.70
2023-02-01T15:21:54.744Z,56.74
2023-02-01T15:24:25.806Z,56.74
2023-02-01T15:26:54.282Z,56.80
2023-02-01T15:29:23.139Z,56.11
2023-02-01T15:31:52.499Z,56.10
2023-02-01T15:34:20.714Z,55.66
2023-02-01T15:37:01.974Z,56.27
2023-02-01T15:39:31.726Z,56.50
2023-02-01T15:42:25.159Z,56.90
2023-02-01T15:44:51.820Z,56.14
2023-02-01T15:47:26.924Z,56.25
2023-02-01T15:49:56.710Z,56.15
2023-02-01T15:52:40.303Z,56.38
2023-02-01T15:55:18.620Z,55.95
2023-02-01T15:57:45.891Z,55.57
2023-02-01T16:00:26.327Z,55.47
2023-02-01T16:02:58.932Z,55.74
2023-02-01T16:05:44.552Z,55.83
2023-02-01T16:08:16.032Z,55.90
2023-02-01T16:10:46.472Z,55.60
2023-02-01T16:13:14.362Z,56.37
2023-02-01T16:15:41.266Z,55.90
2023-02-01T16:18:09.132Z,55.82
2023-02-01T16:20:37.158Z,55.92
2023-02-01T16:23:04.366Z,55.96
2023-02-01T16:25:31.350Z,56.13
2023-02-01T16:27:58.152Z,56.15
2023-02-01T16:30:25.399Z,56.93
2023-02-01T16:32:58.608Z,56.72
2023-02-01T16:35:36.197Z,56.61
2023-02-01T16:38:13.832Z,56.76
2023-02-01T16:40:42.154Z,57.85
2023-02-01T16:43:20.790Z,57.77
2023-02-01T16:45:49.595Z,57.96
2023-02-01T16:48:22.825Z,57.68
2023-02-01T16:50:54.841Z,57.94
2023-02-01T16:53:23.164Z,58.36
2023-02-01T16:55:50.452Z,58.44
2023-02-01T16:58:17.819Z,58.64
2023-02-01T17:00:44.990Z,58.85
2023-02-01T17:03:17.294Z,59.07
2023-02-01T17:05:47.660Z,60.59
2023-02-01T17:08:20.093Z,60.33
2023-02-01T17:10:46.992Z,59.65
2023-02-01T17:13:15.861Z,60.34
2023-02-01T17:15:50.178Z,59.90
2023-02-01T17:18:19.139Z,59.61
2023-02-01T17:20:48.114Z,59.19
2023-02-01T17:23:18.043Z,59.80
2023-02-01T17:25:44.959Z,59.62
2023-02-01T17:28:11.614Z,60.02
2023-02-01T17:30:39.908Z,59.92
2023-02-01T17:33:35.954Z,59.80
2023-02-01T17:36:05.969Z,60.49
2023-02-01T17:38:34.524Z,60.24
2023-02-01T17:41:01.449Z,60.42
2023-02-01T17:43:28.336Z,60.41
2023-02-01T17:46:06.702Z,60.82
2023-02-01T17:48:33.445Z,60.88
2023-02-01T17:51:00.890Z,60.54
2023-02-01T17:53:29.119Z,60.65
2023-02-01T17:55:59.704Z,61.01
2023-02-01T17:58:26.642Z,60.79
2023-02-01T18:00:54.288Z,60.44
2023-02-01T18:03:26.996Z,61.38
2023-02-01T18:05:56.088Z,61.52
2023-02-01T18:08:25.135Z,61.20
2023-02-01T18:10:54.870Z,61.43
2023-02-01T18:13:22.447Z,61.17
2023-02-01T18:15:49.134Z,60.82
2023-02-01T18:18:15.847Z,60.95
2023-02-01T18:20:44.388Z,60.77
2023-02-01T18:23:16.985Z,61.96
2023-02-01T18:25:44.023Z,61.56
2023-02-01T18:28:10.646Z,61.87
2023-02-01T18:30:37.445Z,61.82
2023-02-01T18:33:05.377Z,62.16
2023-02-01T18:35:32.756Z,62.21
2023-02-01T18:37:59.486Z,62.54
2023-02-01T18:40:30.028Z,62.16
2023-02-01T18:42:58.112Z,61.81
2023-02-01T18:45:25.094Z,62.72
2023-02-01T18:47:52.519Z,62.51
2023-02-01T18:50:19.673Z,62.26
2023-02-01T18:52:47.267Z,62.06
2023-02-01T18:55:14.299Z,62.45
2023-02-01T18:57:41.148Z,62.67
2023-02-01T19:00:10.741Z,62.01
2023-02-01T19:02:39.123Z,62.08
2023-02-01T19:05:08.118Z,61.68
2023-02-01T19:07:39.579Z,61.83
2023-02-01T19:10:09.022Z,61.41
2023-02-01T19:12:36.760Z,61.54
2023-02-01T19:15:04.210Z,61.75
2023-02-01T19:17:31.074Z,61.70
2023-02-01T19:20:00.636Z,62.24
2023-02-01T19:22:27.699Z,61.45
2023-02-01T19:24:54.741Z,61.56
2023-02-01T19:27:21.762Z,61.34
2023-02-01T19:29:48.746Z,61.68
2023-02-01T19:32:15.437Z,62.27
2023-02-01T19:34:42.175Z,61.79
2023-02-01T19:37:10.138Z,62.85
2023-02-01T19:39:37.841Z,62.27
2023-02-01T19:42:05.423Z,62.32
2023-02-01T19:44:32.736Z,62.51
2023-02-01T19:46:59.382Z,62.35
2023-02-01T19:49:26.545Z,61.84
2023-02-01T19:51:53.211Z,61.76
2023-02-01T19:54:20.766Z,62.10
2023-02-01T19:56:51.029Z,62.43
2023-02-01T19:59:18.999Z,62.87
2023-02-01T20:01:46.628Z,62.67
2023-02-01T20:04:15.397Z,62.64
2023-02-01T20:06:48.761Z,62.89
2023-02-01T20:09:17.134Z,62.98
2023-02-01T20:11:43.892Z,63.75
2023-02-01T20:14:11.415Z,63.69
2023-02-01T20:16:39.189Z,63.62
2023-02-01T20:19:06.331Z,63.27
2023-02-01T20:21:33.159Z,63.40
2023-02-01T20:23:59.827Z,63.64
2023-02-01T20:26:27.972Z,63.83
2023-02-01T20:28:55.671Z,64.00
2023-02-01T20:31:24.969Z,64.48
2023-02-01T20:33:52.727Z,64.00
2023-02-01T20:36:19.406Z,64.06
2023-02-01T20:38:46.299Z,64.63
2023-02-01T20:41:12.908Z,64.83
2023-02-01T20:43:39.558Z,64.97
2023-02-01T20:46:06.402Z,65.54
2023-02-01T20:48:33.196Z,65.68
2023-02-01T20:51:00.435Z,66.74
2023-02-01T20:53:27.304Z,67.23
2023-02-01T20:55:56.295Z,66.86
2023-02-01T20:58:23.328Z,67.71
2023-02-01T21:00:50.694Z,67.31
2023-02-01T21:03:17.629Z,68.10
2023-02-01T21:05:54.404Z,68.36
2023-02-01T21:08:21.608Z,67.51
2023-02-01T21:11:03.172Z,67.58
2023-02-01T21:13:31.773Z,67.83
2023-02-01T21:15:58.895Z,67.55
2023-02-01T21:18:25.709Z,68.80
2023-02-01T21:20:52.383Z,68.30
2023-02-01T21:23:19.035Z,68.94
2023-02-01T21:25:46.080Z,68.78
2023-02-01T21:28:13.652Z,68.29
2023-02-01T21:30:41.078Z,68.04
2023-02-01T21:33:07.939Z,67.63
2023-02-01T21:35:34.564Z,67.77
2023-02-01T21:38:01.276Z,68.56
2023-02-01T21:40:27.926Z,67.08
2023-02-01T21:42:54.624Z,67.69
2023-02-01T21:45:21.359Z,67.51
2023-02-01T21:47:49.614Z,67.69
2023-02-01T21:50:18.792Z,68.00
2023-02-01T21:52:46.036Z,68.21
2023-02-01T21:55:13.663Z,67.83
2023-02-01T21:57:40.807Z,67.94
2023-02-01T22:00:13.341Z,67.07
2023-02-01T22:02:40.106Z,66.70
2023-02-01T22:05:07.347Z,67.08
2023-02-01T22:07:36.005Z,67.24
2023-02-01T22:10:03.210Z,67.67
2023-02-01T22:12:29.896Z,67.26
2023-02-01T22:14:56.694Z,67.20
2023-02-01T22:17:23.440Z,66.56
2023-02-01T22:19:50.076Z,66.82
2023-02-01T22:22:16.807Z,66.94
2023-02-01T22:24:43.502Z,67.22
2023-02-01T22:27:14.398Z,66.94
2023-02-01T22:29:42.775Z,66.99
2023-02-01T22:32:09.780Z,68.23
2023-02-01T22:34:36.397Z,66.62
2023-02-01T22:37:03.138Z,67.08
2023-02-01T22:39:29.975Z,68.85
2023-02-01T22:41:56.610Z,68.26
2023-02-01T22:44:23.698Z,67.50
2023-02-01T22:46:50.740Z,67.62
2023-02-01T22:49:17.580Z,67.98
2023-02-01T22:51:44.369Z,68.43
2023-02-01T22:54:17.619Z,69.04
2023-02-01T22:56:44.351Z,68.55
2023-02-01T22:59:13.790Z,68.29
2023-02-01T23:01:41.397Z,67.97
2023-02-01T23:04:12.798Z,67.97
2023-02-01T23:06:39.873Z,68.09
2023-02-01T23:09:18.797Z,67.62
2023-02-01T23:11:45.868Z,67.91
2023-02-01T23:14:14.464Z,68.05
2023-02-01T23:16:43.403Z,67.89
2023-02-01T23:19:10.070Z,68.33
2023-02-01T23:21:37.082Z,67.93
2023-02-01T23:24:07.215Z,68.07
2023-02-01T23:26:34.988Z,68.03
2023-02-01T23:29:03.008Z,68.04
2023-02-01T23:31:31.654Z,68.02
2023-02-01T23:33:59.826Z,68.17
2023-02-01T23:36:28.244Z,67.83
2023-02-01T23:38:55.720Z,68.27
2023-02-01T23:41:23.861Z,68.19
2023-02-01T23:44:00.568Z,67.82
2023-02-01T23:46:47.202Z,68.32
2023-02-01T23:49:15.983Z,68.24
2023-02-01T23:51:43.244Z,68.41
2023-02-01T23:54:11.628Z,69.14
2023-02-01T23:56:43.817Z,69.00
2023-02-01T23:59:20.326Z,69.15
